logo tempoitalia

Diretta Meteo St Francis, Stati Uniti (USA)lunedì 31 agosto ore 01:35

Mappa
Sereno 21 °C Sereno 24 Ore: T.min 16 T.max 35
Ponente Ovest Km/h 9.3 Punto di rugiada: 13 °C Umidità: 60% Visibilità: 10 Km
Il sole sorge alle: 07:14 Il sole tramonta alle: 20:20
31 Agosto 2026 01:35 tempo osservato: Sereno Sereno 21 60 1016 vento: Nord O 9.3
31 Agosto 2026 01:15 tempo osservato: Sereno Sereno 21 60 1016 vento: Nord O/SO 11.1
31 Agosto 2026 00:55 tempo osservato: Sereno Sereno 22 56 1016 vento: Nord S/SO 11.1
31 Agosto 2026 00:35 tempo osservato: Sereno Sereno 22 53 1016 vento: Nord S/SO 11.1
31 Agosto 2026 00:15 tempo osservato: Sereno Sereno 21 56 1016 vento: Nord S/SO 13
30 Agosto 2026 23:55 tempo osservato: Sereno Sereno 21 56 1016 vento: Nord S/SO 11.1
30 Agosto 2026 23:35 tempo osservato: Sereno Sereno 21 56 1016 vento: Nord SO 9.3
30 Agosto 2026 23:15 tempo osservato: Sereno Sereno 23 49 1016 vento: Nord SO 9.3
30 Agosto 2026 22:55 tempo osservato: Sereno Sereno 24 47 1016 vento: Nord N 5.5
30 Agosto 2026 22:35 tempo osservato: Sereno Sereno 24 47 1016 vento: Nord N 5.5
30 Agosto 2026 22:15 tempo osservato: Sereno Sereno 25 44 1016 vento: Nord N 5.5
30 Agosto 2026 21:55 tempo osservato: Sereno Sereno 25 41 1016 vento: Nord N 0
30 Agosto 2026 21:35 tempo osservato: Sereno Sereno 25 44 1016 vento: Nord N 0
30 Agosto 2026 21:15 tempo osservato: Poco Nuvoloso Poco Nuvoloso 26 39 1016 vento: Nord NO 9.3
30 Agosto 2026 20:55 tempo osservato: Nuvoloso Nuvoloso 27 36 1015 vento: Nord N/NO 16.7
30 Agosto 2026 20:35 tempo osservato: Molto Nuvoloso Molto Nuvoloso 28 32 1015 vento: Nord N/NO 22.2
30 Agosto 2026 20:15 tempo osservato: Nuvoloso Nuvoloso 29 32 1015 vento: Nord NO 25.9
30 Agosto 2026 19:55 tempo osservato: Sereno Sereno 30 33 1014 vento: Nord E 7.4
30 Agosto 2026 19:35 tempo osservato: Sereno Sereno 31 31 1014 vento: Nord E 7.4
30 Agosto 2026 19:15 tempo osservato: Sereno Sereno 32 29 1014 vento: Nord E/SE 11.1
30 Agosto 2026 18:55 tempo osservato: Sereno Sereno 33 29 1014 vento: Nord N 0
30 Agosto 2026 18:35 tempo osservato: Sereno Sereno 33 27 1014 vento: Nord O/NO 9.3
30 Agosto 2026 18:15 tempo osservato: Sereno Sereno 33 27 1013 vento: Nord N 0
30 Agosto 2026 17:55 tempo osservato: Sereno Sereno 34 24 1013 vento: Nord N 0
30 Agosto 2026 17:35 tempo osservato: Sereno Sereno 34 23 1013 vento: Nord N 0
30 Agosto 2026 17:15 tempo osservato: Sereno Sereno 34 24 1013 vento: Nord N 5.5
30 Agosto 2026 16:55 tempo osservato: Sereno Sereno 34 24 1013 vento: Nord N 5.5
30 Agosto 2026 16:35 tempo osservato: Sereno Sereno 34 23 1013 vento: Nord N 9.3
30 Agosto 2026 16:15 tempo osservato: Sereno Sereno 34 23 1013 vento: Nord N 7.4
30 Agosto 2026 15:55 tempo osservato: Sereno Sereno 34 24 1013 vento: Nord N 7.4
30 Agosto 2026 15:35 tempo osservato: Sereno Sereno 35 23 1013 vento: Nord N 11.1
30 Agosto 2026 15:15 tempo osservato: Sereno Sereno 35 21 1014 vento: Nord N 9.3
30 Agosto 2026 14:55 tempo osservato: Sereno Sereno 35 21 1014 vento: Nord O 13
30 Agosto 2026 14:35 tempo osservato: Sereno Sereno 33 24 1014 vento: Nord N 9.3
30 Agosto 2026 14:15 tempo osservato: Sereno Sereno 33 24 1014 vento: Nord O 9.3
30 Agosto 2026 13:55 tempo osservato: Sereno Sereno 33 24 1014 vento: Nord E/SE 11.1
30 Agosto 2026 13:35 tempo osservato: Sereno Sereno 33 24 1014 vento: Nord N 7.4
30 Agosto 2026 13:15 tempo osservato: Sereno Sereno 33 24 1014 vento: Nord N 7.4
30 Agosto 2026 12:55 tempo osservato: Sereno Sereno 33 24 1015 vento: Nord N/NE 13
30 Agosto 2026 12:35 tempo osservato: Sereno Sereno 33 24 1015 vento: Nord NE 14.8
30 Agosto 2026 12:15 tempo osservato: Sereno Sereno 33 24 1015 vento: Nord NO 11.1
30 Agosto 2026 11:55 tempo osservato: Sereno Sereno 32 25 1015 vento: Nord N/NO 13
30 Agosto 2026 11:35 tempo osservato: Sereno Sereno 31 29 1015 vento: Nord NO 7.4
30 Agosto 2026 11:15 tempo osservato: Sereno Sereno 30 30 1015 vento: Nord N/NO 14.8
30 Agosto 2026 10:55 tempo osservato: Sereno Sereno 29 35 1015 vento: Nord N/NO 9.3
30 Agosto 2026 10:35 tempo osservato: Sereno Sereno 26 41 1015 vento: Nord O/NO 7.4
30 Agosto 2026 10:15 tempo osservato: Sereno Sereno 24 50 1015 vento: Nord N 5.5
30 Agosto 2026 09:55 tempo osservato: Sereno Sereno 23 53 1015 vento: Nord O/NO 9.3
30 Agosto 2026 09:35 tempo osservato: Sereno Sereno 22 56 1015 vento: Nord SO 7.4
30 Agosto 2026 09:15 tempo osservato: Sereno Sereno 21 60 1015 vento: Nord O 11.1
30 Agosto 2026 08:55 tempo osservato: Sereno Sereno 20 68 1015 vento: Nord O/SO 7.4
30 Agosto 2026 08:35 tempo osservato: Sereno Sereno 19 72 1015 vento: Nord SO 13
30 Agosto 2026 08:15 tempo osservato: Sereno Sereno 18 77 1015 vento: Nord O/SO 11.1
30 Agosto 2026 07:55 tempo osservato: Sereno Sereno 18 77 1014 vento: Nord O/SO 9.3
30 Agosto 2026 07:35 tempo osservato: Sereno Sereno 17 82 1014 vento: Nord O/SO 11.1
30 Agosto 2026 07:15 tempo osservato: Sereno Sereno 17 82 1014 vento: Nord O 14.8
30 Agosto 2026 06:55 tempo osservato: Sereno Sereno 17 82 1014 vento: Nord O/SO 11.1
30 Agosto 2026 06:35 tempo osservato: Sereno Sereno 16 87 1014 vento: Nord O/SO 16.7
30 Agosto 2026 06:15 tempo osservato: Sereno Sereno 16 87 1014 vento: Nord O/SO 11.1
30 Agosto 2026 05:55 tempo osservato: Sereno Sereno 16 87 1014 vento: Nord O/SO 13
30 Agosto 2026 05:35 tempo osservato: Sereno Sereno 16 87 1014 vento: Nord SO 11.1
30 Agosto 2026 05:15 tempo osservato: Sereno Sereno 17 82 1014 vento: Nord O/NO 14.8
30 Agosto 2026 04:55 tempo osservato: Sereno Sereno 17 88 1013 vento: Nord S 7.4
30 Agosto 2026 04:35 tempo osservato: Sereno Sereno 17 88 1013 vento: Nord N 0
30 Agosto 2026 04:15 tempo osservato: Sereno Sereno 17 82 1014 vento: Nord N 5.5
30 Agosto 2026 03:55 tempo osservato: Sereno Sereno 17 88 1014 vento: Nord SO 9.3
30 Agosto 2026 03:35 tempo osservato: Sereno Sereno 17 88 1014 vento: Nord O/SO 11.1
30 Agosto 2026 03:15 tempo osservato: Sereno Sereno 17 88 1014 vento: Nord O/SO 11.1
30 Agosto 2026 02:55 tempo osservato: Sereno Sereno 17 88 1014 vento: Nord O 9.3
30 Agosto 2026 02:35 tempo osservato: Sereno Sereno 18 82 1014 vento: Nord O 11.1
30 Agosto 2026 02:15 tempo osservato: Sereno Sereno 18 82 1015 vento: Nord O 9.3
30 Agosto 2026 01:55 tempo osservato: Sereno Sereno 19 77 1015 vento: Nord O/NO 11.1
30 Agosto 2026 01:35 tempo osservato: Sereno Sereno 19 77 1014 vento: Nord NO 11.1